Time;durP1;ratioP1;P1;durP2;ratioP2;P2;SDS_P1;SDS_P2;PMS_P1;PMS_P2;Temp;Humidity;BMP_temperature;BMP_pressure;BME280_temperature;BME280_humidity;BME280_pressure;Samples;Min_cycle;Max_cycle;Signal;HPM_P1;HPM_P2
2022/08/15 00:01:18;;;;;;;3.97;2.10;;;;;;;16.37;69.76;93255.38;5083462;28;20392;-81
2022/08/15 00:03:48;;;;;;;3.17;2.35;;;;;;;15.65;70.75;93223.22;5083789;28;20020;-81
2022/08/15 00:06:21;;;;;;;5.97;3.28;;;;;;;15.94;71.47;93256.63;5081482;28;20552;-81
2022/08/15 00:08:58;;;;;;;3.60;2.80;;;;;;;16.03;71.44;93265.97;5084928;28;20021;-81
2022/08/15 00:11:34;;;;;;;4.38;2.70;;;;;;;16.03;71.02;93265.97;5084338;28;20048;-80
2022/08/15 00:14:09;;;;;;;4.15;2.95;;;;;;;15.73;72.17;93262.44;5089495;28;20051;-81
2022/08/15 00:16:38;;;;;;;6.15;4.40;;;;;;;15.68;72.59;93249.31;5084189;28;20024;-80
2022/08/15 00:19:08;;;;;;;5.15;3.63;;;;;;;15.91;72.60;93271.53;5083493;28;20097;-80
2022/08/15 00:21:35;;;;;;;4.13;3.13;;;;;;;15.97;72.25;93274.69;5086743;28;20024;-81
2022/08/15 00:24:01;;;;;;;5.22;3.95;;;;;;;15.61;73.72;93265.28;5083566;28;20196;-80
2022/08/15 00:26:26;;;;;;;5.97;3.33;;;;;;;15.78;73.46;93256.75;5083046;28;20078;-81
2022/08/15 00:28:52;;;;;;;5.97;3.78;;;;;;;15.97;72.40;93237.91;5081055;28;20020;-81
2022/08/15 00:31:17;;;;;;;4.43;3.30;;;;;;;16.04;72.57;93267.50;5080275;28;20072;-82
2022/08/15 00:33:43;;;;;;;5.57;4.03;;;;;;;15.87;73.78;93263.44;5087646;28;20012;-80
2022/08/15 00:36:10;;;;;;;5.43;3.95;;;;;;;15.60;73.70;93220.81;5080727;28;20020;-80
2022/08/15 00:38:35;;;;;;;4.78;3.83;;;;;;;15.82;73.43;93212.00;5100612;27;20024;-80
2022/08/15 00:43:56;;;;;;;4.28;3.60;;;;;;;16.17;72.46;93234.00;5082899;28;20090;-80
2022/08/15 00:46:22;;;;;;;4.95;3.42;;;;;;;16.39;71.37;93229.72;5081530;28;20033;-81
2022/08/15 00:48:50;;;;;;;5.18;3.40;;;;;;;16.42;70.82;93228.22;5080965;28;20058;-81
2022/08/15 00:51:33;;;;;;;5.63;3.80;;;;;;;16.89;69.80;93244.53;5085791;28;20016;-81
2022/08/15 00:54:08;;;;;;;6.75;4.00;;;;;;;16.77;68.99;93252.06;5085132;28;20020;-80
2022/08/15 00:56:40;;;;;;;6.45;4.13;;;;;;;16.89;68.49;93249.91;5079266;28;20539;-81
2022/08/15 00:59:09;;;;;;;5.38;4.05;;;;;;;16.78;68.20;93235.59;5079879;28;21067;-81
2022/08/15 01:01:36;;;;;;;4.10;3.70;;;;;;;16.67;68.80;93245.44;5079882;28;20024;-81
2022/08/15 01:04:01;;;;;;;4.75;3.50;;;;;;;16.37;69.21;93226.63;5080302;28;20038;-81
2022/08/15 01:06:26;;;;;;;5.25;4.28;;;;;;;16.40;69.15;93242.00;5079871;28;20016;-80
2022/08/15 01:08:53;;;;;;;5.90;4.32;;;;;;;16.67;68.53;93240.06;5081395;28;20630;-82
2022/08/15 01:11:27;;;;;;;5.30;4.32;;;;;;;16.85;67.48;93238.38;5080260;28;20059;-81
2022/08/15 01:13:55;;;;;;;5.22;3.90;;;;;;;16.86;67.53;93231.88;5080331;28;20028;-81
2022/08/15 01:16:23;;;;;;;7.35;4.80;;;;;;;17.23;66.72;93239.19;5078112;28;21039;-81
2022/08/15 01:18:50;;;;;;;6.07;4.90;;;;;;;17.23;65.39;93201.56;5081263;28;20226;-82
2022/08/15 01:21:28;;;;;;;5.05;3.63;;;;;;;17.37;65.79;93223.97;5080908;28;20028;-81
2022/08/15 01:24:24;;;;;;;8.07;4.65;;;;;;;17.10;65.11;93183.00;5079508;28;20024;-81
2022/08/15 01:26:50;;;;;;;5.93;4.60;;;;;;;17.35;65.24;93230.88;5082395;28;20402;-82
2022/08/15 01:29:17;;;;;;;6.18;4.25;;;;;;;17.51;64.64;93215.28;5080548;28;20032;-81
2022/08/15 01:31:43;;;;;;;7.38;4.68;;;;;;;17.51;64.23;93237.56;5079444;28;20052;-81
2022/08/15 01:34:08;;;;;;;6.80;4.78;;;;;;;17.44;64.83;93220.59;5082104;28;20249;-81
2022/08/15 01:36:34;;;;;;;5.57;4.20;;;;;;;17.60;64.33;93223.78;5083334;28;20016;-81
2022/08/15 01:39:14;;;;;;;6.47;5.03;;;;;;;17.74;63.56;93207.03;5082003;28;20491;-80
2022/08/15 01:41:49;;;;;;;6.22;4.45;;;;;;;17.88;63.08;93217.91;5082468;28;20036;-81
2022/08/15 01:44:28;;;;;;;5.45;4.40;;;;;;;18.04;63.00;93248.78;5081194;28;20846;-81
2022/08/15 01:47:00;;;;;;;7.32;4.22;;;;;;;17.69;62.86;93192.03;5076706;28;20636;-81
2022/08/15 01:49:36;;;;;;;6.88;4.90;;;;;;;18.01;62.31;93229.94;5085139;28;20024;-80
2022/08/15 01:52:04;;;;;;;6.15;4.40;;;;;;;18.07;62.58;93247.28;5078453;28;20021;-81
2022/08/15 01:54:37;;;;;;;7.63;6.00;;;;;;;17.48;63.82;93216.03;5080374;28;20017;-79
2022/08/15 01:57:04;;;;;;;6.15;5.03;;;;;;;17.65;63.97;93226.16;5078948;28;20486;-80
2022/08/15 01:59:30;;;;;;;8.88;6.00;;;;;;;16.94;66.54;93212.00;5078721;28;20020;-81
2022/08/15 02:02:09;;;;;;;10.88;7.35;;;;;;;17.24;66.52;93238.06;5077941;28;20027;-82
2022/08/15 02:04:41;;;;;;;8.88;6.68;;;;;;;17.35;65.90;93220.91;5078755;28;20441;-83
2022/08/15 02:07:17;;;;;;;9.65;7.35;;;;;;;17.67;65.13;93223.88;5079471;28;20472;-82
2022/08/15 02:09:42;;;;;;;9.93;6.78;;;;;;;17.62;64.63;93213.47;5077643;28;20100;-83
2022/08/15 02:12:09;;;;;;;9.70;6.97;;;;;;;17.68;64.08;93206.59;5082309;28;20143;-83
2022/08/15 02:14:35;;;;;;;11.48;7.20;;;;;;;17.75;63.99;93200.47;5083291;28;20016;-81
2022/08/15 02:17:02;;;;;;;10.77;6.90;;;;;;;17.98;63.43;93218.00;5079408;28;20020;-80
2022/08/15 02:19:28;;;;;;;9.35;6.55;;;;;;;17.97;63.01;93211.09;5077917;28;20539;-79
2022/08/15 02:21:53;;;;;;;9.32;6.78;;;;;;;17.96;62.46;93201.47;5079073;28;20031;-81
2022/08/15 02:24:22;;;;;;;7.88;5.60;;;;;;;17.88;62.18;93188.31;5082919;28;20092;-80
2022/08/15 02:26:53;;;;;;;9.88;6.93;;;;;;;18.18;62.36;93229.31;5080534;28;20052;-80
2022/08/15 02:29:25;;;;;;;9.70;6.53;;;;;;;18.14;62.33;93238.50;5078098;28;20031;-80
2022/08/15 02:31:56;;;;;;;11.77;6.82;;;;;;;18.00;62.19;93214.94;5081028;28;20023;-80
2022/08/15 02:34:23;;;;;;;9.25;7.22;;;;;;;17.96;62.67;93232.97;5079850;28;20075;-80
2022/08/15 02:36:48;;;;;;;8.68;6.22;;;;;;;17.99;62.67;93243.75;5078536;28;20036;-81
2022/08/15 02:39:14;;;;;;;9.05;5.82;;;;;;;17.92;62.18;93226.75;5079038;28;20024;-80
2022/08/15 02:41:43;;;;;;;10.55;6.57;;;;;;;17.73;63.27;93256.56;5077694;28;20020;-79
2022/08/15 02:44:11;;;;;;;8.48;6.20;;;;;;;17.71;64.07;93248.09;5079482;28;20012;-81
2022/08/15 02:46:38;;;;;;;9.50;6.65;;;;;;;17.18;65.20;93249.13;5077838;28;20036;-81
2022/08/15 02:49:10;;;;;;;11.60;7.15;;;;;;;17.47;65.07;93265.53;5079755;28;20264;-79
2022/08/15 02:51:36;;;;;;;10.02;6.95;;;;;;;17.64;64.16;93267.66;5077694;28;20112;-79
2022/08/15 02:54:02;;;;;;;15.15;6.90;;;;;;;17.27;64.68;93234.63;5077349;28;20442;-81
2022/08/15 02:56:28;;;;;;;8.52;6.32;;;;;;;17.30;65.53;93274.22;5079145;28;20027;-80
2022/08/15 02:58:54;;;;;;;12.25;7.75;;;;;;;16.82;66.96;93251.75;5077351;28;20016;-79
2022/08/15 03:01:21;;;;;;;9.77;7.22;;;;;;;16.80;67.93;93254.03;5085152;28;20030;-80
2022/08/15 03:03:50;;;;;;;11.73;8.43;;;;;;;16.85;68.02;93257.16;5075872;28;20392;-81
2022/08/15 03:06:19;;;;;;;10.93;8.05;;;;;;;16.93;68.12;93276.81;5075699;28;20028;-81
2022/08/15 03:08:45;;;;;;;13.00;9.23;;;;;;;16.88;68.21;93272.53;5078718;28;20528;-80
2022/08/15 03:11:11;;;;;;;10.85;8.02;;;;;;;16.95;67.67;93280.69;5080746;28;20024;-81
2022/08/15 03:13:40;;;;;;;10.95;8.13;;;;;;;16.26;69.42;93247.91;5083958;28;20020;-80
2022/08/15 03:16:07;;;;;;;14.60;8.70;;;;;;;16.50;69.29;93262.06;5083589;28;20476;-80
2022/08/15 03:18:35;;;;;;;12.45;8.02;;;;;;;16.00;71.03;93287.34;5082640;28;20035;-81
2022/08/15 03:21:04;;;;;;;10.38;7.45;;;;;;;15.89;71.35;93273.78;5089599;28;20027;-80
2022/08/15 03:23:32;;;;;;;11.80;7.95;;;;;;;16.05;71.04;93282.47;5082098;28;20037;-80
2022/08/15 03:25:59;;;;;;;12.52;8.65;;;;;;;15.82;70.96;93281.72;5080991;28;20102;-80
2022/08/15 03:28:31;;;;;;;11.25;7.93;;;;;;;16.01;70.54;93287.00;5083251;28;20039;-80
2022/08/15 03:30:58;;;;;;;12.50;8.55;;;;;;;15.82;70.62;93271.78;5081169;28;20054;-81
2022/08/15 03:33:24;;;;;;;12.63;8.80;;;;;;;15.77;72.12;93300.78;5081915;28;20016;-81
2022/08/15 03:35:50;;;;;;;12.68;7.72;;;;;;;15.75;71.50;93270.88;5084535;28;20280;-80
2022/08/15 03:38:16;;;;;;;10.63;7.90;;;;;;;15.94;70.72;93268.09;5080804;28;20043;-80
2022/08/15 03:40:43;;;;;;;11.13;8.20;;;;;;;15.77;70.40;93264.03;5082480;28;20043;-81
2022/08/15 03:43:16;;;;;;;10.02;6.82;;;;;;;15.62;71.48;93307.03;5083651;28;20538;-80
2022/08/15 03:45:51;;;;;;;11.70;7.47;;;;;;;15.11;73.11;93285.03;5087522;28;20258;-80
2022/08/15 03:48:18;;;;;;;12.65;8.23;;;;;;;15.25;73.19;93290.66;5087378;28;20113;-80
2022/08/15 03:50:45;;;;;;;17.27;8.88;;;;;;;15.04;73.96;93304.41;5084045;28;20102;-80
2022/08/15 03:53:11;;;;;;;15.25;9.30;;;;;;;14.92;74.71;93307.19;5081838;28;20286;-80
2022/08/15 03:55:38;;;;;;;10.70;7.32;;;;;;;15.12;74.44;93313.31;5081892;28;20086;-80
2022/08/15 03:58:05;;;;;;;18.58;8.63;;;;;;;15.05;74.53;93308.63;5083526;28;20049;-80
2022/08/15 04:00:36;;;;;;;14.63;9.70;;;;;;;14.76;75.86;93318.00;5082332;28;20035;-80
2022/08/15 04:03:08;;;;;;;14.18;9.05;;;;;;;14.90;75.68;93322.84;5083702;28;20701;-80
2022/08/15 04:05:35;;;;;;;11.52;8.27;;;;;;;14.96;74.73;93311.50;5083346;28;20451;-80
2022/08/15 04:08:02;;;;;;;16.83;10.30;;;;;;;14.83;75.37;93323.47;5085728;28;20024;-79
2022/08/15 04:10:30;;;;;;;16.88;10.95;;;;;;;14.74;76.08;93311.41;5090976;28;20012;-80
2022/08/15 04:12:55;;;;;;;17.27;11.40;;;;;;;14.48;76.42;93274.50;5081917;28;20052;-80
2022/08/15 04:15:21;;;;;;;19.45;11.43;;;;;;;14.84;76.40;93329.59;5084947;28;20016;-80
2022/08/15 04:17:47;;;;;;;19.77;12.43;;;;;;;14.59;76.98;93311.13;5084628;28;20112;-80
2022/08/15 04:20:13;;;;;;;18.13;10.98;;;;;;;14.81;76.95;93306.22;5081008;28;20027;-80
2022/08/15 04:22:47;;;;;;;17.75;12.20;;;;;;;15.23;75.84;93319.69;5082164;28;20102;-80
2022/08/15 04:25:27;;;;;;;19.55;12.45;;;;;;;15.21;75.46;93316.56;5081092;28;20028;-82
2022/08/15 04:27:56;;;;;;;18.50;10.95;;;;;;;15.07;75.17;93266.19;5080827;28;20032;-81
2022/08/15 04:30:23;;;;;;;16.95;11.20;;;;;;;15.54;74.47;93308.03;5078899;28;20384;-81
2022/08/15 04:32:51;;;;;;;20.20;12.55;;;;;;;15.32;73.70;93275.47;5084024;28;20029;-80
2022/08/15 04:35:16;;;;;;;21.30;12.50;;;;;;;15.85;73.30;93316.63;5077909;28;20012;-80
2022/08/15 04:37:42;;;;;;;23.42;13.52;;;;;;;15.74;73.19;93280.81;5080085;28;20075;-80
2022/08/15 04:40:10;;;;;;;20.42;12.27;;;;;;;16.05;72.38;93301.25;5079206;28;20388;-79
2022/08/15 04:42:47;;;;;;;24.48;14.43;;;;;;;16.40;71.80;93300.25;5078402;28;20048;-80
2022/08/15 04:45:13;;;;;;;23.25;14.80;;;;;;;16.43;71.41;93310.28;5083635;28;20016;-83
2022/08/15 04:47:39;;;;;;;23.40;15.85;;;;;;;16.26;71.96;93285.50;5080192;28;20024;-80
2022/08/15 04:50:05;;;;;;;25.52;15.95;;;;;;;16.07;72.03;93264.13;5076433;28;20034;-82
2022/08/15 04:52:30;;;;;;;23.52;14.68;;;;;;;16.31;72.42;93306.69;5079910;28;20479;-82
2022/08/15 04:54:57;;;;;;;24.48;15.57;;;;;;;16.29;72.10;93300.84;5079941;28;20111;-81
2022/08/15 04:57:23;;;;;;;22.27;14.80;;;;;;;16.16;72.06;93280.72;5094933;28;20376;-81
2022/08/15 04:59:49;;;;;;;25.65;15.57;;;;;;;16.17;73.33;93313.69;5079222;28;20024;-80
2022/08/15 05:02:21;;;;;;;24.02;16.25;;;;;;;16.10;73.66;93319.72;5080554;28;20101;-80
2022/08/15 05:04:47;;;;;;;27.98;16.90;;;;;;;16.21;73.59;93328.72;5082721;28;20063;-81
2022/08/15 05:07:13;;;;;;;25.33;14.98;;;;;;;16.30;73.16;93323.91;5080399;28;20476;-80
2022/08/15 05:09:38;;;;;;;24.73;15.55;;;;;;;15.87;73.41;93254.59;5081144;28;20020;-80
2022/08/15 05:12:04;;;;;;;27.42;16.00;;;;;;;16.05;73.75;93295.88;5078943;28;20032;-80
2022/08/15 05:14:29;;;;;;;25.30;15.98;;;;;;;16.47;73.36;93305.75;5076941;28;20016;-83
2022/08/15 05:16:54;;;;;;;22.85;16.00;;;;;;;16.20;73.55;93307.59;5082506;28;20049;-80
2022/08/15 05:19:20;;;;;;;27.75;14.63;;;;;;;16.41;73.30;93301.81;5075597;28;20107;-80
2022/08/15 05:21:46;;;;;;;23.08;14.68;;;;;;;16.24;72.62;93295.78;5078810;28;20016;-80
2022/08/15 05:24:11;;;;;;;24.98;16.02;;;;;;;16.36;72.37;93278.75;5076819;28;20424;-80
2022/08/15 05:26:38;;;;;;;25.27;15.02;;;;;;;16.51;72.05;93266.31;5077626;28;20423;-81
2022/08/15 05:29:06;;;;;;;24.35;16.55;;;;;;;16.57;71.85;93273.69;5076553;28;20028;-81
2022/08/15 05:31:32;;;;;;;23.90;15.30;;;;;;;16.42;71.92;93265.81;5075981;28;20039;-80
2022/08/15 05:33:59;;;;;;;26.15;15.27;;;;;;;16.74;71.81;93293.84;5077858;28;20396;-81
2022/08/15 05:36:26;;;;;;;26.85;15.27;;;;;;;16.97;71.85;93309.84;5075398;28;20040;-81
2022/08/15 05:38:58;;;;;;;27.75;16.83;;;;;;;16.81;70.96;93260.94;5079362;28;20191;-81
2022/08/15 05:41:59;;;;;;;22.20;13.82;;;;;;;17.07;70.37;93285.03;5077975;28;20024;-81
2022/08/15 05:44:40;;;;;;;23.60;15.07;;;;;;;17.26;70.51;93301.03;5073022;28;20032;-81
2022/08/15 05:47:24;;;;;;;22.23;14.55;;;;;;;17.38;69.96;93305.38;5068029;28;20035;-80
2022/08/15 05:49:54;;;;;;;23.52;15.02;;;;;;;17.57;69.24;93303.28;5073045;28;20040;-81
2022/08/15 05:52:29;;;;;;;24.52;15.73;;;;;;;17.35;69.56;93311.50;5074083;28;20750;-80
2022/08/15 05:55:36;;;;;;;22.48;15.65;;;;;;;17.14;69.70;93323.56;5078292;28;20020;-81
2022/08/15 05:58:23;;;;;;;25.73;15.65;;;;;;;17.09;69.71;93312.31;5078202;28;20521;-81
2022/08/15 06:01:01;;;;;;;24.98;15.70;;;;;;;17.10;70.20;93290.47;5081917;28;20028;-82
2022/08/15 06:03:28;;;;;;;22.85;14.63;;;;;;;17.09;70.04;93291.59;5076423;28;20050;-80
2022/08/15 06:05:56;;;;;;;29.08;17.65;;;;;;;17.10;70.66;93311.97;5072303;28;20024;-82
2022/08/15 06:08:33;;;;;;;23.10;15.32;;;;;;;16.99;69.87;93311.06;5069106;28;20033;-81
2022/08/15 06:11:08;;;;;;;23.58;15.18;;;;;;;17.06;70.42;93310.38;5074702;28;20498;-80
2022/08/15 06:13:40;;;;;;;27.05;15.15;;;;;;;17.05;70.57;93309.59;5073798;28;20181;-80
2022/08/15 06:16:24;;;;;;;21.98;15.23;;;;;;;16.85;71.02;93316.25;5074719;28;20294;-80
2022/08/15 06:18:50;;;;;;;27.02;16.15;;;;;;;16.78;71.55;93283.91;5070122;28;20361;-82
2022/08/15 06:21:30;;;;;;;24.80;16.08;;;;;;;17.18;70.43;93312.84;5066477;28;20023;-82
2022/08/15 06:24:16;;;;;;;27.38;17.20;;;;;;;16.93;70.24;93291.03;5059304;28;20355;-82
2022/08/15 06:27:14;;;;;;;26.00;16.10;;;;;;;17.13;70.87;93307.75;5061160;28;20427;-81
2022/08/15 06:30:28;;;;;;;25.02;15.63;;;;;;;17.30;71.01;93309.16;5066508;28;20046;-81
2022/08/15 06:33:14;;;;;;;28.25;18.85;;;;;;;17.26;70.60;93309.09;5070967;28;20213;-80
2022/08/15 07:09:54;;;;;;;23.08;15.45;;;;;;;18.28;66.91;93346.25;5054621;27;1623702;-81
2022/08/15 07:12:35;;;;;;;24.20;15.35;;;;;;;17.79;67.66;93341.94;5087333;28;20043;-81
2022/08/15 07:15:25;;;;;;;24.63;16.42;;;;;;;17.80;68.18;93343.47;5101201;28;20124;-80
2022/08/15 07:18:00;;;;;;;29.98;18.33;;;;;;;17.77;69.52;93346.91;5090699;28;20027;-80
2022/08/15 07:20:26;;;;;;;33.17;19.58;;;;;;;17.56;68.86;93309.03;5093210;28;20020;-81
2022/08/15 07:22:52;;;;;;;30.80;18.52;;;;;;;17.80;69.32;93338.09;5098168;28;20055;-81
2022/08/15 07:25:28;;;;;;;29.17;16.23;;;;;;;17.85;68.30;93335.06;5099152;28;20042;-80
2022/08/15 07:28:06;;;;;;;27.75;17.40;;;;;;;17.80;67.81;93313.09;5109894;28;20031;-80
2022/08/15 07:30:57;;;;;;;26.75;15.93;;;;;;;17.95;68.04;93339.81;5108854;28;20098;-81
2022/08/15 07:33:34;;;;;;;27.83;17.83;;;;;;;18.20;68.17;93339.25;5106357;28;20028;-81
2022/08/15 07:36:15;;;;;;;28.40;18.33;;;;;;;18.03;66.58;93325.28;5088782;28;20527;-82
2022/08/15 07:53:53;;;;;;;24.10;15.65;;;;;;;18.94;63.92;93355.19;5087134;27;20879;-80
2022/08/15 07:56:19;;;;;;;21.52;15.23;;;;;;;19.16;63.24;93360.34;5078164;28;20101;-81
2022/08/15 07:58:45;;;;;;;23.35;15.35;;;;;;;18.75;63.91;93321.22;5078619;28;20024;-82
2022/08/15 08:01:30;;;;;;;22.13;15.68;;;;;;;18.79;64.64;93365.88;5063790;28;20027;-80
2022/08/15 08:04:13;;;;;;;;;;;;;;;18.69;64.50;93366.56;5065594;28;20028;-82
2022/08/15 08:07:01;;;;;;;24.00;16.23;;;;;;;18.33;66.33;93327.06;5074033;28;19919;-80
2022/08/15 08:09:37;;;;;;;21.30;14.32;;;;;;;18.47;65.60;93324.47;5052085;28;20604;-81
2022/08/15 08:12:11;;;;;;;24.83;16.02;;;;;;;18.71;65.57;93369.69;5074993;28;20291;-81
2022/08/15 08:15:05;;;;;;;22.10;15.00;;;;;;;18.88;64.81;93377.09;5072762;28;20455;-82
2022/08/15 08:17:39;;;;;;;21.10;15.30;;;;;;;18.84;65.12;93373.63;5074574;28;20434;-80
2022/08/15 08:20:11;;;;;;;20.90;14.30;;;;;;;18.68;65.08;93373.09;5075445;28;20672;-81
2022/08/15 08:22:45;;;;;;;21.85;15.38;;;;;;;18.67;64.84;93335.78;5073536;28;20024;-82
2022/08/15 08:25:15;;;;;;;23.30;14.90;;;;;;;18.63;65.42;93335.72;5073278;28;20035;-82
2022/08/15 08:27:51;;;;;;;23.73;14.95;;;;;;;18.75;65.29;93370.47;5073790;28;20024;-80
2022/08/15 08:30:24;;;;;;;22.10;16.05;;;;;;;18.65;65.59;93332.66;5074983;28;20109;-81
2022/08/15 08:33:09;;;;;;;23.85;16.25;;;;;;;18.78;65.26;93361.63;5072583;28;20027;-81
2022/08/15 08:35:54;;;;;;;21.67;14.55;;;;;;;18.77;66.28;93325.06;5072889;28;20174;-80
2022/08/15 08:38:23;;;;;;;21.00;14.80;;;;;;;18.93;66.14;93332.09;5072895;28;20036;-81
2022/08/15 08:44:20;;;;;;;23.70;14.95;;;;;;;19.33;63.75;93364.25;5071868;28;20316;-81
2022/08/15 08:47:16;;;;;;;20.08;13.38;;;;;;;19.36;63.16;93357.34;5070637;28;20028;-81
2022/08/15 08:50:19;;;;;;;21.35;14.77;;;;;;;19.45;62.62;93368.59;5073141;28;20059;-81
2022/08/15 08:53:03;;;;;;;23.35;15.52;;;;;;;19.40;63.48;93368.91;5067449;28;20523;-81
2022/08/15 08:55:47;;;;;;;25.58;16.25;;;;;;;19.47;63.38;93358.94;5058753;28;20153;-80
2022/08/15 08:58:20;;;;;;;22.35;15.38;;;;;;;19.31;63.94;93359.22;5056651;28;20047;-81
2022/08/15 09:00:48;;;;;;;20.08;13.60;;;;;;;19.33;62.25;93348.84;5053772;28;20048;-81
2022/08/15 09:03:20;;;;;;;21.50;15.50;;;;;;;19.41;62.78;93344.25;5050662;28;20032;-81
2022/08/15 09:05:54;;;;;;;22.83;16.08;;;;;;;19.34;63.75;93317.28;5050289;28;20032;-81
2022/08/15 09:08:36;;;;;;;20.75;14.35;;;;;;;19.43;62.90;93308.81;5055523;28;20028;-82
2022/08/15 09:11:19;;;;;;;20.40;14.63;;;;;;;19.70;61.34;93343.22;5061606;28;20020;-80
2022/08/15 09:13:48;;;;;;;18.20;13.13;;;;;;;19.62;60.12;93325.47;5055465;28;20024;-80
2022/08/15 09:16:30;;;;;;;21.30;14.15;;;;;;;19.68;60.78;93333.97;5058701;28;20735;-81
2022/08/15 09:19:28;;;;;;;22.70;15.20;;;;;;;19.60;62.29;93327.78;5058118;28;20025;-80
2022/08/15 09:21:54;;;;;;;22.65;14.95;;;;;;;19.50;62.08;93339.31;5056267;28;20456;-79
2022/08/15 09:24:21;;;;;;;19.48;12.73;;;;;;;19.53;62.22;93343.94;5057520;28;20039;-82
2022/08/15 09:27:08;;;;;;;22.27;14.32;;;;;;;19.64;61.26;93339.38;5060719;28;20020;-82
2022/08/15 09:29:37;;;;;;;18.75;13.52;;;;;;;19.54;60.47;93318.53;5058511;28;20039;-80
2022/08/15 09:32:28;;;;;;;19.52;14.15;;;;;;;19.75;60.56;93336.66;5059344;28;20427;-80
2022/08/15 09:35:17;;;;;;;19.38;14.30;;;;;;;19.87;61.25;93336.34;5058484;28;20074;-81
2022/08/15 09:38:08;;;;;;;21.60;14.00;;;;;;;19.83;60.28;93329.38;5048834;28;20020;-79
2022/08/15 09:40:54;;;;;;;19.10;13.00;;;;;;;19.94;59.32;93336.34;5049196;28;20634;-81
2022/08/15 09:43:28;;;;;;;19.58;13.07;;;;;;;20.00;59.97;93342.13;5060908;28;20543;-79
2022/08/15 09:46:06;;;;;;;20.20;14.10;;;;;;;20.01;59.59;93330.19;5055743;28;20016;-80
2022/08/15 09:49:09;;;;;;;20.58;13.70;;;;;;;20.31;60.33;93336.03;5056966;28;20383;-81
2022/08/15 09:51:34;;;;;;;16.45;12.23;;;;;;;20.43;58.05;93335.66;5054590;28;20062;-81
2022/08/15 09:54:18;;;;;;;15.95;11.23;;;;;;;20.51;57.64;93331.78;5055038;28;20028;-80
2022/08/15 09:56:44;;;;;;;16.33;11.40;;;;;;;20.56;57.45;93323.28;5054910;28;20021;-81
2022/08/15 09:59:21;;;;;;;19.67;13.05;;;;;;;20.53;56.59;93328.69;5058969;28;20516;-80
2022/08/15 10:02:21;;;;;;;14.73;11.32;;;;;;;20.49;56.52;93285.47;5059280;28;20074;-80
2022/08/15 10:04:49;;;;;;;16.10;12.32;;;;;;;20.75;56.19;93329.44;5020500;28;20064;-81
2022/08/15 10:07:15;;;;;;;15.52;11.60;;;;;;;20.75;56.88;93330.19;5058386;28;20116;-79
2022/08/15 10:10:09;;;;;;;22.67;11.70;;;;;;;20.68;56.69;93335.59;5059751;28;20028;-79
2022/08/15 10:12:37;;;;;;;16.25;12.48;;;;;;;20.65;56.11;93331.00;4980578;28;20057;-80
2022/08/15 10:15:26;;;;;;;18.10;13.50;;;;;;;20.82;57.66;93329.44;5052228;28;20025;-80
2022/08/15 10:17:52;;;;;;;18.42;13.38;;;;;;;20.66;57.61;93281.19;5052417;28;20433;-79
2022/08/15 10:20:22;;;;;;;15.63;11.98;;;;;;;20.82;55.64;93319.41;5056565;28;20046;-80
2022/08/15 10:23:07;;;;;;;19.85;13.13;;;;;;;20.80;56.33;93327.09;5056300;28;20046;-80
2022/08/15 10:25:38;;;;;;;17.60;12.25;;;;;;;20.68;56.38;93295.06;5053614;28;20053;-81
2022/08/15 10:28:13;;;;;;;20.75;13.25;;;;;;;20.81;56.60;93311.66;5055572;28;20036;-80
2022/08/15 10:30:44;;;;;;;20.70;13.70;;;;;;;20.91;57.32;93305.50;5045117;28;20032;-79
2022/08/15 10:33:32;;;;;;;16.25;12.48;;;;;;;21.01;55.49;93316.28;5054987;28;20032;-81
2022/08/15 10:36:13;;;;;;;18.83;12.43;;;;;;;21.32;55.43;93313.84;5052211;28;20107;-82
2022/08/15 10:38:44;;;;;;;12.70;9.18;;;;;;;21.14;53.64;93284.19;5052007;28;20387;-80
2022/08/15 10:41:10;;;;;;;14.70;10.80;;;;;;;21.39;53.39;93303.78;5054440;28;20024;-78
2022/08/15 10:44:26;;;;;;;14.38;10.50;;;;;;;21.63;54.38;93307.56;5056965;28;20031;-80
2022/08/15 10:47:07;;;;;;;12.75;10.23;;;;;;;21.46;53.95;93308.41;5005418;28;20053;-82
2022/08/15 10:49:52;;;;;;;13.90;10.32;;;;;;;20.99;53.84;93250.25;4995172;28;20094;-82
2022/08/15 10:52:33;;;;;;;12.95;10.43;;;;;;;21.22;54.15;93304.59;5041259;28;20044;-83
2022/08/15 10:55:13;;;;;;;14.55;10.43;;;;;;;21.41;54.50;93306.09;5045018;28;20047;-83
2022/08/15 10:57:49;;;;;;;12.93;9.73;;;;;;;21.33;53.75;93291.81;5055464;28;20379;-82
2022/08/15 11:00:26;;;;;;;12.90;9.73;;;;;;;21.60;52.74;93316.47;5055526;28;20679;-82
2022/08/15 11:02:55;;;;;;;12.70;9.50;;;;;;;21.63;52.26;93295.97;5054860;28;20032;-82
2022/08/15 11:05:26;;;;;;;14.15;10.73;;;;;;;21.58;51.97;93299.84;5052635;28;20525;-80
2022/08/15 11:07:54;;;;;;;11.85;9.27;;;;;;;21.46;50.86;93260.44;5050754;28;20016;-81
2022/08/15 11:10:24;;;;;;;13.05;9.82;;;;;;;21.95;51.02;93296.53;5067415;28;20067;-80
2022/08/15 11:12:54;;;;;;;13.13;9.13;;;;;;;21.97;52.13;93304.25;5051474;28;20404;-82
2022/08/15 11:15:30;;;;;;;10.35;8.55;;;;;;;21.93;52.43;93284.56;5053091;28;20019;-80
2022/08/15 11:18:08;;;;;;;12.18;9.43;;;;;;;22.03;51.62;93308.88;5050690;28;20072;-80
2022/08/15 11:20:49;;;;;;;11.93;9.27;;;;;;;21.96;50.94;93308.13;5054733;28;20364;-80
2022/08/15 11:23:36;;;;;;;10.57;8.88;;;;;;;22.07;50.71;93303.41;5050045;28;20377;-80
2022/08/15 11:26:05;;;;;;;10.80;8.65;;;;;;;21.90;50.63;93296.97;5047562;28;20020;-82
2022/08/15 11:28:31;;;;;;;12.13;9.32;;;;;;;22.11;50.19;93313.06;5051202;28;20036;-80
2022/08/15 11:31:17;;;;;;;11.93;8.70;;;;;;;21.75;50.73;93257.63;5050889;28;20240;-81
2022/08/15 11:33:46;;;;;;;10.57;7.95;;;;;;;22.04;50.74;93296.88;5049216;28;20033;-83
2022/08/15 11:36:19;;;;;;;10.65;8.75;;;;;;;22.09;49.83;93301.09;5052178;28;20055;-79
2022/08/15 11:38:52;;;;;;;11.23;7.43;;;;;;;22.28;50.47;93301.38;5045182;28;20488;-80
2022/08/15 11:41:21;;;;;;;13.32;8.80;;;;;;;22.21;49.20;93284.34;5050641;28;20636;-81
2022/08/15 11:43:48;;;;;;;11.20;9.07;;;;;;;22.23;49.20;93263.09;5057555;28;20048;-83
2022/08/15 11:46:16;;;;;;;11.90;9.50;;;;;;;22.29;48.74;93278.50;5053833;28;20036;-83
2022/08/15 11:48:48;;;;;;;9.98;8.10;;;;;;;22.51;49.61;93278.34;5052502;28;20024;-81
2022/08/15 11:51:14;;;;;;;12.90;8.95;;;;;;;22.63;49.17;93297.56;5057502;28;20416;-81
2022/08/15 11:54:03;;;;;;;10.80;8.82;;;;;;;22.47;48.82;93264.06;5056554;28;20035;-81
2022/08/15 11:56:55;;;;;;;10.15;8.27;;;;;;;22.81;48.76;93291.22;5074924;28;20463;-81
2022/08/15 11:59:28;;;;;;;9.73;8.23;;;;;;;22.78;47.83;93287.34;5049609;28;20025;-83
2022/08/15 12:02:05;;;;;;;9.13;7.68;;;;;;;22.56;47.55;93246.16;5056612;28;20017;-82
2022/08/15 12:04:34;;;;;;;11.82;8.95;;;;;;;22.80;47.65;93295.09;5053390;28;20048;-81
2022/08/15 12:07:19;;;;;;;12.07;8.27;;;;;;;22.78;48.12;93292.78;5056846;28;20107;-82
2022/08/15 12:10:18;;;;;;;9.93;7.93;;;;;;;22.92;48.18;93279.13;5054125;28;20431;-80
2022/08/15 12:12:49;;;;;;;9.25;7.65;;;;;;;22.78;47.29;93251.38;5051070;28;20387;-81
2022/08/15 12:15:17;;;;;;;11.75;8.70;;;;;;;23.03;46.35;93277.03;5055613;28;20036;-82
2022/08/15 12:18:13;;;;;;;9.98;7.88;;;;;;;23.08;45.63;93279.31;5054810;28;20504;-80
2022/08/15 12:20:46;;;;;;;9.75;7.90;;;;;;;23.27;46.45;93277.19;5054853;28;20078;-81
2022/08/15 12:23:35;;;;;;;10.63;7.80;;;;;;;23.28;46.63;93252.34;5072266;28;20104;-81
2022/08/15 12:26:08;;;;;;;10.50;7.75;;;;;;;23.37;45.34;93274.31;5052008;28;20032;-82
2022/08/15 12:28:36;;;;;;;9.60;7.00;;;;;;;23.37;43.99;93262.69;5058548;28;20020;-83
2022/08/15 12:31:01;;;;;;;9.20;7.40;;;;;;;23.35;44.59;93262.34;5059980;28;20065;-81
2022/08/15 12:33:26;;;;;;;8.30;6.93;;;;;;;23.42;45.19;93240.53;5058997;28;20044;-82
2022/08/15 12:35:52;;;;;;;10.50;8.55;;;;;;;23.53;44.40;93260.97;5059001;28;20040;-80
2022/08/15 12:38:19;;;;;;;8.07;6.78;;;;;;;23.59;44.46;93255.84;5057350;28;20063;-79
2022/08/15 12:40:45;;;;;;;9.52;7.53;;;;;;;23.35;43.37;93216.22;5063154;28;20035;-79
2022/08/15 12:43:10;;;;;;;7.78;6.40;;;;;;;23.46;43.56;93254.84;5061957;28;20020;-79
2022/08/15 12:45:37;;;;;;;10.38;7.53;;;;;;;23.41;44.47;93247.94;5060963;28;20605;-80
2022/08/15 12:48:12;;;;;;;8.13;6.80;;;;;;;23.49;44.95;93216.81;5063476;28;20389;-81